GB-0156 weather

CLOSED Cricklewood Aerodrome
London, England, United Kingdom

Public forecast

Using degrees Celsius for public forecast. Weather courtesy of forecast.io.

METAR (pilot weather report)

Closest report is RAF Northolt, 7.7 nm (14.2 km) W. Retrieved 2018/07/19 02:50 UTC (13 minutes ago):

EGWU 190250Z AUTO 00000KT 9999 // NCD 13/11 Q1019

TAF (pilot weather forecast)

Forecast is more than 12 hours old.

Closest forecast is RAF Northolt, 7.7 nm (14.2 km) W. Retrieved 2018/07/18 00:33 UTC (1 day ago):

TAF EGWU 182327Z 1900/1918 CNL